Time;durP1;ratioP1;P1;durP2;ratioP2;P2;SDS_P1;SDS_P2;PMS_P1;PMS_P2;Temp;Humidity;BMP_temperature;BMP_pressure;BME280_temperature;BME280_humidity;BME280_pressure;Samples;Min_cycle;Max_cycle;Signal;HPM_P1;HPM_P2
2021/11/27 00:00:24;;;;;;;;;;;;;;;14.22;67.15;98053.16;1045366;28;722;-62
2021/11/27 00:01:14;;;;;;;;;;;;;;;14.21;67.50;98062.19;1045903;28;1042;-62
2021/11/27 00:02:05;;;;;;;;;;;;;;;14.22;67.25;98063.03;1049756;28;848;-62
2021/11/27 00:02:55;;;;;;;;;;;;;;;14.20;67.24;98063.22;1049771;28;709;-62
2021/11/27 00:03:45;;;;;;;;;;;;;;;14.22;66.55;98055.00;1049974;28;957;-61
2021/11/27 00:04:36;;;;;;;;;;;;;;;14.20;67.16;98065.91;1048812;28;685;-61
2021/11/27 00:05:26;;;;;;;;;;;;;;;14.21;66.86;98064.88;1049044;28;799;-61
2021/11/27 00:06:17;;;;;;;;;;;;;;;14.22;66.92;98068.38;1048595;28;1377;-60
2021/11/27 00:07:07;;;;;;;;;;;;;;;14.21;67.14;98066.72;1049492;28;712;-61
2021/11/27 00:07:58;;;;;;;;;;;;;;;14.21;66.74;98067.56;1050276;28;1897;-61
2021/11/27 00:08:48;;;;;;;;;;;;;;;14.22;67.19;98063.03;1049881;28;778;-61
2021/11/27 00:09:38;;;;;;;;;;;;;;;14.20;67.01;98065.91;1050002;28;739;-62
2021/11/27 00:10:29;;;;;;;;;;;;;;;14.19;67.00;98064.25;1049760;28;912;-61
2021/11/27 00:11:19;;;;;;;;;;;;;;;14.18;67.17;98059.91;1049873;28;810;-62
2021/11/27 00:12:10;;;;;;;;;;;;;;;14.18;67.45;98062.56;1049032;28;860;-62
2021/11/27 00:13:00;;;;;;;;;;;;;;;14.17;67.19;98058.25;1049744;28;695;-62
2021/11/27 00:13:50;;;;;;;;;;;;;;;14.18;66.74;98051.88;1045740;28;676;-62
2021/11/27 00:14:41;;;;;;;;;;;;;;;14.18;66.50;98062.56;1046712;28;781;-62
2021/11/27 00:15:31;;;;;;;;;;;;;;;14.17;66.94;98057.41;1046730;28;771;-62
2021/11/27 00:16:22;;;;;;;;;;;;;;;14.16;66.62;98053.06;1046769;28;963;-62
2021/11/27 00:17:12;;;;;;;;;;;;;;;14.18;66.82;98054.53;1046826;28;758;-62
2021/11/27 00:18:03;;;;;;;;;;;;;;;14.16;67.52;98053.06;1046729;28;1169;-61
2021/11/27 00:18:53;;;;;;;;;;;;;;;14.16;67.61;98053.06;1049553;28;617;-61
2021/11/27 00:19:43;;;;;;;;;;;;;;;14.17;67.47;98052.88;1050612;28;742;-61
2021/11/27 00:20:34;;;;;;;;;;;;;;;14.16;67.39;98043.19;1046330;28;768;-61
2021/11/27 00:21:24;;;;;;;;;;;;;;;14.16;66.84;98053.06;1046902;28;726;-60
2021/11/27 00:22:15;;;;;;;;;;;;;;;14.14;66.83;98045.25;1046825;28;700;-60
2021/11/27 00:23:05;;;;;;;;;;;;;;;14.15;66.83;98051.44;1046718;28;634;-60
2021/11/27 00:23:56;;;;;;;;;;;;;;;14.14;66.76;98047.09;1046662;28;706;-59
2021/11/27 00:24:46;;;;;;;;;;;;;;;14.13;67.72;98048.94;1046758;28;789;-59
2021/11/27 00:25:36;;;;;;;;;;;;;;;14.13;67.21;98042.75;1046604;28;666;-60
2021/11/27 00:26:27;;;;;;;;;;;;;;;14.14;66.93;98045.25;1046887;28;813;-60
2021/11/27 00:27:17;;;;;;;;;;;;;;;14.13;67.67;98048.94;1046704;28;790;-60
2021/11/27 00:28:08;;;;;;;;;;;;;;;14.15;67.28;98043.41;1046116;28;1812;-59
2021/11/27 00:28:58;;;;;;;;;;;;;;;14.14;67.27;98039.91;1049598;28;1809;-60
2021/11/27 00:29:48;;;;;;;;;;;;;;;14.14;67.51;98039.06;1050367;28;641;-59
2021/11/27 00:30:39;;;;;;;;;;;;;;;14.13;67.24;98037.41;1050255;28;781;-60
2021/11/27 00:31:29;;;;;;;;;;;;;;;14.13;67.21;98037.41;1050285;28;763;-59
2021/11/27 00:32:20;;;;;;;;;;;;;;;14.11;66.79;98026.88;1050376;28;789;-59
2021/11/27 00:33:10;;;;;;;;;;;;;;;14.11;67.46;98034.91;1050065;28;1858;-59
2021/11/27 00:34:01;;;;;;;;;;;;;;;14.11;67.24;98029.56;1049751;28;610;-59
2021/11/27 00:34:51;;;;;;;;;;;;;;;14.10;67.54;98033.25;1049838;28;676;-59
2021/11/27 00:35:42;;;;;;;;;;;;;;;14.10;67.07;98027.91;1049714;28;1073;-59
2021/11/27 00:36:32;;;;;;;;;;;;;;;14.11;66.93;98029.56;1049888;28;786;-59
2021/11/27 00:37:22;;;;;;;;;;;;;;;14.11;67.21;98024.22;1049619;28;842;-59
2021/11/27 00:38:13;;;;;;;;;;;;;;;14.11;67.24;98024.22;1049792;28;753;-60
2021/11/27 00:39:03;;;;;;;;;;;;;;;14.10;67.11;98025.22;1049808;28;633;-60
2021/11/27 00:39:54;;;;;;;;;;;;;;;14.10;67.19;98021.72;1049657;28;618;-60
2021/11/27 00:40:44;;;;;;;;;;;;;;;14.10;66.98;98024.41;1049770;28;673;-60
2021/11/27 00:41:35;;;;;;;;;;;;;;;14.08;67.44;98024.59;1049300;28;921;-60
2021/11/27 00:42:25;;;;;;;;;;;;;;;14.09;67.47;98023.56;1049488;28;708;-61
2021/11/27 00:43:16;;;;;;;;;;;;;;;14.09;66.87;98023.56;1049586;28;823;-61
2021/11/27 00:44:06;;;;;;;;;;;;;;;14.09;66.99;98026.25;1049735;28;622;-61
2021/11/27 00:44:56;;;;;;;;;;;;;;;14.08;67.20;98024.59;1049743;28;775;-60
2021/11/27 00:45:47;;;;;;;;;;;;;;;14.09;67.25;98026.25;1049642;28;953;-60
2021/11/27 00:46:37;;;;;;;;;;;;;;;14.09;67.14;98023.56;1052633;28;1549;-60
2021/11/27 00:47:28;;;;;;;;;;;;;;;14.09;67.03;98025.41;1053806;28;755;-60
2021/11/27 00:48:18;;;;;;;;;;;;;;;14.09;67.22;98025.41;1053839;28;756;-60
2021/11/27 00:49:09;;;;;;;;;;;;;;;14.09;67.57;98025.41;1053991;28;785;-60
2021/11/27 00:49:59;;;;;;;;;;;;;;;14.07;66.62;98022.91;1053783;28;845;-60
2021/11/27 00:50:49;;;;;;;;;;;;;;;14.07;66.81;98022.91;1053951;28;687;-60
2021/11/27 00:51:40;;;;;;;;;;;;;;;14.07;67.51;98032.81;1053779;28;767;-60
2021/11/27 00:52:30;;;;;;;;;;;;;;;14.06;66.97;98023.94;1053897;28;794;-60
2021/11/27 00:53:21;;;;;;;;;;;;;;;14.06;67.48;98021.25;1047130;28;700;-60
2021/11/27 00:54:11;;;;;;;;;;;;;;;14.08;67.47;98029.94;1045517;28;798;-60
2021/11/27 00:55:02;;;;;;;;;;;;;;;14.07;67.27;98027.44;1048099;28;702;-60
2021/11/27 00:55:52;;;;;;;;;;;;;;;14.07;67.55;98024.78;1048400;28;875;-58
2021/11/27 00:56:42;;;;;;;;;;;;;;;14.06;67.51;98029.28;1048710;28;638;-59
2021/11/27 00:57:33;;;;;;;;;;;;;;;14.07;67.51;98032.81;1047593;28;1235;-60
2021/11/27 00:58:23;;;;;;;;;;;;;;;14.06;67.22;98031.97;1048406;28;779;-60
2021/11/27 00:59:14;;;;;;;;;;;;;;;14.06;66.84;98025.78;1048705;28;1507;-60
2021/11/27 01:00:04;;;;;;;;;;;;;;;14.06;67.29;98025.78;1048453;28;773;-60
2021/11/27 01:00:55;;;;;;;;;;;;;;;14.06;67.49;98020.44;1048656;28;709;-60
2021/11/27 01:01:45;;;;;;;;;;;;;;;14.06;66.92;98029.28;1048353;28;843;-60
2021/11/27 01:02:35;;;;;;;;;;;;;;;14.07;67.43;98028.28;1048149;28;774;-60
2021/11/27 01:03:26;;;;;;;;;;;;;;;14.06;67.23;98026.63;1052298;28;1915;-60
2021/11/27 01:04:17;;;;;;;;;;;;;;;14.05;67.23;98035.66;1052628;28;870;-59
2021/11/27 01:05:07;;;;;;;;;;;;;;;14.05;66.91;98033.00;1053249;28;605;-60
2021/11/27 01:05:58;;;;;;;;;;;;;;;14.05;66.99;98029.47;1052808;28;717;-60
2021/11/27 01:06:48;;;;;;;;;;;;;;;14.06;67.04;98036.50;1052488;28;802;-60
2021/11/27 01:07:38;;;;;;;;;;;;;;;14.05;67.01;98027.63;1052856;28;692;-60
2021/11/27 01:08:29;;;;;;;;;;;;;;;14.05;66.88;98030.31;1052484;28;755;-60
2021/11/27 01:09:19;;;;;;;;;;;;;;;14.05;66.99;98030.31;1052675;28;712;-60
2021/11/27 01:10:10;;;;;;;;;;;;;;;14.05;66.91;98024.13;1052919;28;617;-60
2021/11/27 01:11:00;;;;;;;;;;;;;;;14.04;67.04;98031.34;1052647;28;701;-60
2021/11/27 01:11:51;;;;;;;;;;;;;;;14.05;67.44;98033.00;1052778;28;649;-60
2021/11/27 01:12:41;;;;;;;;;;;;;;;14.04;67.53;98028.66;1052772;28;1854;-60
2021/11/27 01:13:31;;;;;;;;;;;;;;;14.04;66.96;98027.81;1052539;28;708;-59
2021/11/27 01:14:22;;;;;;;;;;;;;;;14.04;66.74;98027.81;1052252;28;1318;-61
2021/11/27 01:15:12;;;;;;;;;;;;;;;14.03;67.33;98024.31;1052605;28;785;-61
2021/11/27 01:16:03;;;;;;;;;;;;;;;14.04;67.29;98028.66;1052744;28;618;-59
2021/11/27 01:16:53;;;;;;;;;;;;;;;14.04;66.88;98030.50;1052475;28;832;-60
2021/11/27 01:17:43;;;;;;;;;;;;;;;14.02;67.43;98030.69;1052720;28;749;-60
2021/11/27 01:18:34;;;;;;;;;;;;;;;14.03;67.19;98029.66;1053042;28;781;-60
2021/11/27 01:19:24;;;;;;;;;;;;;;;14.03;67.44;98027.00;1052544;28;697;-60
2021/11/27 01:20:15;;;;;;;;;;;;;;;14.03;67.04;98026.16;1053005;28;795;-61
2021/11/27 01:21:06;;;;;;;;;;;;;;;14.02;66.87;98028.00;1052452;28;935;-61
2021/11/27 01:21:56;;;;;;;;;;;;;;;14.02;67.17;98025.34;1052540;28;777;-61
2021/11/27 01:22:46;;;;;;;;;;;;;;;14.02;66.82;98032.53;1052665;28;642;-61
2021/11/27 01:23:37;;;;;;;;;;;;;;;14.02;66.90;98030.69;1052303;28;743;-61
2021/11/27 01:24:27;;;;;;;;;;;;;;;14.01;66.82;98028.19;1052427;28;661;-60
2021/11/27 01:25:18;;;;;;;;;;;;;;;14.01;67.05;98031.72;1052629;28;862;-60
2021/11/27 01:26:08;;;;;;;;;;;;;;;14.00;67.05;98038.09;1052508;28;689;-60
2021/11/27 01:27:00;;;;;;;;;;;;;;;14.01;67.29;98026.34;1052711;28;689;-60
2021/11/27 01:27:50;;;;;;;;;;;;;;;14.01;67.20;98029.03;1049664;28;1972;-60
2021/11/27 01:28:40;;;;;;;;;;;;;;;14.00;67.58;98032.72;1052633;28;801;-62
2021/11/27 01:29:31;;;;;;;;;;;;;;;14.00;67.12;98031.91;1052149;28;1005;-62
2021/11/27 01:30:21;;;;;;;;;;;;;;;13.98;67.45;98026.72;1051801;28;2052;-61
2021/11/27 01:31:12;;;;;;;;;;;;;;;14.00;66.77;98027.38;1049065;28;697;-62
2021/11/27 01:32:02;;;;;;;;;;;;;;;14.00;67.52;98030.03;1048198;28;716;-62
2021/11/27 01:32:53;;;;;;;;;;;;;;;13.99;67.15;98025.72;1049085;28;697;-62
2021/11/27 01:33:43;;;;;;;;;;;;;;;13.98;67.57;98024.06;1050085;28;925;-62
2021/11/27 01:34:33;;;;;;;;;;;;;;;13.99;66.87;98024.88;1049021;28;677;-62
2021/11/27 01:35:24;;;;;;;;;;;;;;;13.99;67.01;98025.72;1050113;28;794;-62
2021/11/27 01:36:14;;;;;;;;;;;;;;;13.98;66.76;98021.38;1048965;28;720;-62
2021/11/27 01:37:05;;;;;;;;;;;;;;;13.97;66.92;98022.41;1049074;28;745;-62
2021/11/27 01:37:55;;;;;;;;;;;;;;;13.97;66.76;98027.78;1048794;28;925;-62
2021/11/27 01:38:45;;;;;;;;;;;;;;;13.98;67.28;98026.72;1049038;28;779;-63
2021/11/27 01:39:36;;;;;;;;;;;;;;;13.98;66.80;98026.72;1048818;28;1079;-62
2021/11/27 01:40:26;;;;;;;;;;;;;;;13.98;67.25;98025.91;1049033;28;696;-62
2021/11/27 01:41:17;;;;;;;;;;;;;;;13.98;66.76;98028.56;1050115;28;748;-62
2021/11/27 01:42:07;;;;;;;;;;;;;;;13.96;67.39;98020.75;1047830;28;930;-62
2021/11/27 01:42:58;;;;;;;;;;;;;;;13.94;66.67;98028.16;1048844;28;802;-62
2021/11/27 01:43:48;;;;;;;;;;;;;;;13.96;66.99;98028.78;1048923;28;841;-62
2021/11/27 01:44:39;;;;;;;;;;;;;;;13.96;66.79;98039.50;1048964;28;1194;-63
2021/11/27 01:45:29;;;;;;;;;;;;;;;13.96;67.22;98028.78;1048847;28;736;-62
2021/11/27 01:46:20;;;;;;;;;;;;;;;13.97;67.60;98032.31;1049853;28;1553;-62
2021/11/27 01:47:10;;;;;;;;;;;;;;;13.96;67.84;98034.16;1056052;28;797;-63
2021/11/27 01:48:00;;;;;;;;;;;;;;;13.95;67.46;98029.81;1056163;28;1897;-62
2021/11/27 01:48:51;;;;;;;;;;;;;;;13.94;67.00;98033.50;1055856;28;918;-62
2021/11/27 01:49:41;;;;;;;;;;;;;;;13.96;67.53;98031.47;1056203;28;696;-61
2021/11/27 01:50:32;;;;;;;;;;;;;;;13.95;67.23;98029.81;1056170;28;798;-62
2021/11/27 01:51:22;;;;;;;;;;;;;;;13.95;67.47;98034.34;1056049;28;822;-62
2021/11/27 01:52:13;;;;;;;;;;;;;;;13.95;67.64;98032.50;1052414;28;1903;-60
2021/11/27 01:53:03;;;;;;;;;;;;;;;13.95;66.93;98034.34;1052491;28;649;-62
2021/11/27 01:53:53;;;;;;;;;;;;;;;13.94;66.96;98038.84;1052582;28;623;-62
2021/11/27 01:54:44;;;;;;;;;;;;;;;13.94;67.19;98043.38;1052246;28;779;-61
2021/11/27 01:55:34;;;;;;;;;;;;;;;13.94;67.48;98032.69;1052358;28;788;-61
2021/11/27 01:56:25;;;;;;;;;;;;;;;13.93;67.02;98042.56;1052594;28;802;-60
2021/11/27 01:57:15;;;;;;;;;;;;;;;13.94;67.51;98038.03;1052384;28;709;-61
2021/11/27 01:58:05;;;;;;;;;;;;;;;13.93;67.51;98039.88;1053128;28;645;-60
2021/11/27 01:58:56;;;;;;;;;;;;;;;13.94;67.00;98044.22;1052324;28;855;-60
2021/11/27 01:59:47;;;;;;;;;;;;;;;13.94;66.83;98046.88;1052497;28;685;-60
2021/11/27 02:00:37;;;;;;;;;;;;;;;13.94;66.87;98041.53;1052167;28;2279;-60
2021/11/27 02:01:28;;;;;;;;;;;;;;;13.93;67.55;98036.38;1052419;28;739;-60
2021/11/27 02:02:18;;;;;;;;;;;;;;;13.93;67.52;98041.72;1052470;28;772;-60
2021/11/27 02:03:09;;;;;;;;;;;;;;;13.93;67.58;98039.88;1052299;28;998;-60
2021/11/27 02:03:59;;;;;;;;;;;;;;;13.92;67.17;98040.91;1052428;28;692;-60
2021/11/27 02:04:51;;;;;;;;;;;;;;;13.91;67.04;98047.25;1052542;28;774;-60
2021/11/27 02:05:41;;;;;;;;;;;;;;;13.90;67.64;98040.25;1052361;28;807;-61
2021/11/27 02:06:33;;;;;;;;;;;;;;;13.90;66.80;98043.75;1052710;28;1093;-61
2021/11/27 02:07:23;;;;;;;;;;;;;;;13.90;67.27;98042.94;1052238;28;687;-61
2021/11/27 02:08:13;;;;;;;;;;;;;;;13.90;67.50;98042.94;1052439;28;745;-61
2021/11/27 02:09:04;;;;;;;;;;;;;;;13.91;67.22;98041.91;1052091;28;991;-61
2021/11/27 02:09:54;;;;;;;;;;;;;;;13.92;66.78;98042.75;1052472;28;562;-61
2021/11/27 02:10:45;;;;;;;;;;;;;;;13.89;66.94;98044.78;1052596;28;773;-61
2021/11/27 02:11:35;;;;;;;;;;;;;;;13.89;67.75;98046.63;1052085;28;1887;-61
2021/11/27 02:12:25;;;;;;;;;;;;;;;13.89;66.73;98049.28;1048837;28;847;-61
2021/11/27 02:13:16;;;;;;;;;;;;;;;13.89;67.53;98043.94;1049841;28;863;-60
2021/11/27 02:14:06;;;;;;;;;;;;;;;13.89;67.63;98043.94;1049377;28;734;-60
2021/11/27 02:14:57;;;;;;;;;;;;;;;13.89;67.03;98046.63;1048860;28;657;-60
2021/11/27 02:15:47;;;;;;;;;;;;;;;13.89;66.81;98046.63;1048725;28;685;-60
2021/11/27 02:16:37;;;;;;;;;;;;;;;13.88;67.68;98050.31;1048813;28;721;-60
2021/11/27 02:17:28;;;;;;;;;;;;;;;13.88;67.47;98050.31;1048575;28;919;-60
2021/11/27 02:18:18;;;;;;;;;;;;;;;13.87;67.07;98051.34;1048828;28;728;-60
2021/11/27 02:19:09;;;;;;;;;;;;;;;13.86;67.62;98050.50;1048896;28;626;-60
2021/11/27 02:19:59;;;;;;;;;;;;;;;13.87;67.79;98048.66;1050442;28;1923;-60
2021/11/27 02:20:49;;;;;;;;;;;;;;;13.85;66.68;98046.16;1052452;28;673;-61
2021/11/27 02:21:43;;;;;;;;;;;;;;;13.87;66.79;98045.97;1052080;28;726;-60
2021/11/27 02:22:34;;;;;;;;;;;;;;;13.86;67.39;98047.00;1052089;28;700;-61
2021/11/27 02:23:24;;;;;;;;;;;;;;;13.86;67.83;98049.66;1052332;28;748;-61
2021/11/27 02:24:15;;;;;;;;;;;;;;;13.85;67.78;98056.03;1052088;28;701;-61
2021/11/27 02:25:05;;;;;;;;;;;;;;;13.85;67.52;98056.88;1052419;28;665;-60
2021/11/27 02:25:56;;;;;;;;;;;;;;;13.85;67.36;98051.53;1052356;28;736;-61
2021/11/27 02:26:46;;;;;;;;;;;;;;;13.85;66.76;98048.00;1052402;28;782;-60
2021/11/27 02:27:36;;;;;;;;;;;;;;;13.84;67.36;98049.03;1052551;28;769;-60
2021/11/27 02:28:27;;;;;;;;;;;;;;;13.84;66.78;98055.22;1052261;28;775;-61
2021/11/27 02:29:17;;;;;;;;;;;;;;;13.84;67.66;98055.22;1052352;28;1470;-61
2021/11/27 02:30:08;;;;;;;;;;;;;;;13.83;66.78;98052.72;1052490;28;859;-61
2021/11/27 02:30:58;;;;;;;;;;;;;;;13.84;66.90;98054.38;1052305;28;670;-61
2021/11/27 02:31:49;;;;;;;;;;;;;;;13.85;66.82;98056.03;1052352;28;912;-61
2021/11/27 02:32:39;;;;;;;;;;;;;;;13.83;67.19;98064.25;1052167;28;779;-61
2021/11/27 02:33:29;;;;;;;;;;;;;;;13.85;67.29;98058.72;1052261;28;820;-61
2021/11/27 02:34:20;;;;;;;;;;;;;;;13.86;66.68;98055.03;1052685;28;690;-61
2021/11/27 02:35:10;;;;;;;;;;;;;;;13.84;67.20;98060.56;1052418;28;700;-61
2021/11/27 02:36:01;;;;;;;;;;;;;;;13.83;67.09;98058.91;1052460;28;874;-60
2021/11/27 02:36:51;;;;;;;;;;;;;;;13.84;66.58;98059.72;1052215;28;706;-60
2021/11/27 02:37:41;;;;;;;;;;;;;;;13.83;66.59;98058.91;1052397;28;736;-60
2021/11/27 02:38:32;;;;;;;;;;;;;;;13.81;67.34;98068.97;1052756;28;793;-60
2021/11/27 02:39:22;;;;;;;;;;;;;;;13.81;67.69;98066.28;1052301;28;640;-61
2021/11/27 02:40:13;;;;;;;;;;;;;;;13.81;67.17;98060.94;1052213;28;1613;-60
2021/11/27 02:41:03;;;;;;;;;;;;;;;13.81;67.34;98063.63;1052282;28;626;-60
2021/11/27 02:41:54;;;;;;;;;;;;;;;13.81;67.46;98062.78;1053049;28;756;-60
2021/11/27 02:42:44;;;;;;;;;;;;;;;13.81;67.39;98065.47;1052280;28;776;-61
2021/11/27 02:43:34;;;;;;;;;;;;;;;13.81;66.83;98065.47;1052501;28;769;-60
2021/11/27 02:44:25;;;;;;;;;;;;;;;13.81;67.03;98068.13;1052007;28;1017;-60
2021/11/27 02:45:15;;;;;;;;;;;;;;;13.80;67.64;98058.44;1052358;28;807;-61
2021/11/27 02:46:06;;;;;;;;;;;;;;;13.80;66.95;98064.63;1052603;28;701;-60
2021/11/27 02:46:56;;;;;;;;;;;;;;;13.80;67.35;98071.81;1048603;28;775;-62
2021/11/27 02:47:47;;;;;;;;;;;;;;;13.80;67.02;98067.31;1048264;28;1894;-63
2021/11/27 02:48:37;;;;;;;;;;;;;;;13.80;67.54;98074.50;1047874;28;714;-63
2021/11/27 02:49:27;;;;;;;;;;;;;;;13.80;66.85;98074.50;1048056;28;697;-63
2021/11/27 02:50:18;;;;;;;;;;;;;;;13.80;67.27;98072.66;1048265;28;717;-63
2021/11/27 02:51:08;;;;;;;;;;;;;;;13.80;66.64;98074.50;1048178;28;793;-61
2021/11/27 02:51:59;;;;;;;;;;;;;;;13.81;67.23;98076.16;1049134;28;688;-60
2021/11/27 02:52:49;;;;;;;;;;;;;;;13.81;66.69;98076.16;1048866;28;892;-60
2021/11/27 02:53:39;;;;;;;;;;;;;;;13.80;66.63;98074.50;1049062;28;725;-60
2021/11/27 02:54:30;;;;;;;;;;;;;;;13.80;67.43;98079.84;1049368;28;743;-60
2021/11/27 02:55:20;;;;;;;;;;;;;;;13.79;66.98;98072.88;1048917;28;716;-61
2021/11/27 02:56:11;;;;;;;;;;;;;;;13.79;67.25;98075.56;1049198;28;626;-61
2021/11/27 02:57:01;;;;;;;;;;;;;;;13.79;66.74;98072.88;1048871;28;937;-60
2021/11/27 02:57:51;;;;;;;;;;;;;;;13.79;67.78;98075.56;1049041;28;1299;-61
2021/11/27 02:58:42;;;;;;;;;;;;;;;13.77;66.91;98083.75;1049196;28;1091;-61
2021/11/27 02:59:32;;;;;;;;;;;;;;;13.77;66.85;98085.59;1048915;28;940;-60
2021/11/27 03:00:23;;;;;;;;;;;;;;;13.78;66.92;98082.75;1049201;28;805;-60
2021/11/27 03:01:13;;;;;;;;;;;;;;;13.78;67.13;98082.75;1048775;28;883;-60
2021/11/27 03:02:04;;;;;;;;;;;;;;;13.77;67.27;98083.75;1049607;28;745;-60
2021/11/27 03:02:54;;;;;;;;;;;;;;;13.77;67.41;98085.59;1048930;28;642;-61
2021/11/27 03:03:44;;;;;;;;;;;;;;;13.77;67.50;98082.94;1053397;28;759;-60
2021/11/27 03:04:35;;;;;;;;;;;;;;;13.76;67.14;98086.63;1054130;28;665;-60
2021/11/27 03:05:25;;;;;;;;;;;;;;;13.75;67.15;98083.13;1050118;28;728;-60
2021/11/27 03:06:16;;;;;;;;;;;;;;;13.75;66.98;98083.13;1049036;28;1287;-60
2021/11/27 03:07:06;;;;;;;;;;;;;;;13.75;66.85;98085.78;1048786;28;722;-60
2021/11/27 03:07:56;;;;;;;;;;;;;;;13.76;66.79;98083.94;1048966;28;1975;-60
2021/11/27 03:08:47;;;;;;;;;;;;;;;13.75;67.45;98083.13;1049144;28;650;-60
2021/11/27 03:09:37;;;;;;;;;;;;;;;13.75;67.07;98085.78;1048880;28;768;-60
2021/11/27 03:10:28;;;;;;;;;;;;;;;13.76;67.53;98086.63;1052076;28;2040;-60
2021/11/27 03:11:18;;;;;;;;;;;;;;;13.76;66.68;98094.66;1050925;28;1913;-61
2021/11/27 03:12:08;;;;;;;;;;;;;;;13.75;67.14;98082.28;1052865;28;2134;-61
2021/11/27 03:12:59;;;;;;;;;;;;;;;13.74;67.16;98085.97;1053338;28;661;-60
2021/11/27 03:13:49;;;;;;;;;;;;;;;13.73;67.42;98087.81;1053037;28;950;-61
2021/11/27 03:14:40;;;;;;;;;;;;;;;13.73;67.45;98090.50;1053018;28;808;-60
2021/11/27 03:15:31;;;;;;;;;;;;;;;13.74;67.33;98085.97;1052926;28;769;-60
2021/11/27 03:16:22;;;;;;;;;;;;;;;13.74;67.52;98085.97;1053242;28;735;-61
2021/11/27 03:17:13;;;;;;;;;;;;;;;13.73;66.82;98087.00;1057511;28;753;-61
2021/11/27 03:18:04;;;;;;;;;;;;;;;13.72;66.87;98083.50;1057651;28;893;-61
2021/11/27 03:18:54;;;;;;;;;;;;;;;13.73;66.81;98089.66;1053697;28;669;-61
2021/11/27 03:19:45;;;;;;;;;;;;;;;13.73;67.66;98084.31;1057092;28;851;-61
2021/11/27 03:20:35;;;;;;;;;;;;;;;13.72;67.55;98090.69;1057427;28;719;-61
2021/11/27 03:21:26;;;;;;;;;;;;;;;13.72;66.94;98096.03;1053919;28;797;-61
2021/11/27 03:22:16;;;;;;;;;;;;;;;13.72;67.02;98090.69;1053295;28;820;-61
2021/11/27 03:23:06;;;;;;;;;;;;;;;13.71;66.64;98091.69;1053090;28;756;-61
2021/11/27 03:23:57;;;;;;;;;;;;;;;13.72;66.84;98096.03;1054810;28;925;-61
2021/11/27 03:24:47;;;;;;;;;;;;;;;13.71;66.90;98097.88;1052880;28;697;-61
2021/11/27 03:25:38;;;;;;;;;;;;;;;13.72;67.26;98101.38;1053102;28;863;-61
2021/11/27 03:26:28;;;;;;;;;;;;;;;13.69;67.15;98099.91;1052813;28;978;-61
2021/11/27 03:27:18;;;;;;;;;;;;;;;13.71;66.69;98099.72;1052948;28;739;-61
2021/11/27 03:28:09;;;;;;;;;;;;;;;13.70;67.15;98100.75;1053073;28;1882;-61
2021/11/27 03:28:59;;;;;;;;;;;;;;;13.69;67.60;98101.75;1053003;28;689;-61
2021/11/27 03:29:50;;;;;;;;;;;;;;;13.69;67.12;98104.44;1053071;28;657;-61
2021/11/27 03:30:40;;;;;;;;;;;;;;;13.70;67.48;98101.56;1052782;28;736;-61
2021/11/27 03:31:30;;;;;;;;;;;;;;;13.68;67.01;98103.59;1052983;28;731;-61
2021/11/27 03:32:21;;;;;;;;;;;;;;;13.69;67.23;98107.09;1052942;28;780;-61
2021/11/27 03:33:11;;;;;;;;;;;;;;;13.69;67.49;98107.09;1052993;28;619;-61
2021/11/27 03:34:02;;;;;;;;;;;;;;;13.68;66.53;98108.13;1053036;28;662;-62
2021/11/27 03:34:52;;;;;;;;;;;;;;;13.69;67.38;98110.63;1052783;28;785;-62
2021/11/27 03:35:43;;;;;;;;;;;;;;;13.70;66.44;98116.81;1052785;28;747;-61
2021/11/27 03:36:33;;;;;;;;;;;;;;;13.69;66.58;98110.63;1057055;28;796;-61
2021/11/27 03:37:23;;;;;;;;;;;;;;;13.69;67.19;98107.09;1057467;28;766;-61
2021/11/27 03:38:14;;;;;;;;;;;;;;;13.68;66.83;98105.44;1053552;28;1826;-61
2021/11/27 03:39:04;;;;;;;;;;;;;;;13.67;67.05;98109.97;1052721;28;1869;-62
2021/11/27 03:39:55;;;;;;;;;;;;;;;13.67;66.64;98109.97;1053574;28;654;-61
2021/11/27 03:40:45;;;;;;;;;;;;;;;13.68;67.24;98113.47;1053178;28;847;-62
2021/11/27 03:41:36;;;;;;;;;;;;;;;13.66;67.36;98107.47;1053318;28;754;-61
2021/11/27 03:42:26;;;;;;;;;;;;;;;13.66;67.41;98110.16;1052949;28;734;-61
2021/11/27 03:43:17;;;;;;;;;;;;;;;13.67;67.53;98119.84;1053134;28;783;-63
2021/11/27 03:44:07;;;;;;;;;;;;;;;13.66;67.23;98120.84;1052888;28;815;-62
2021/11/27 03:44:57;;;;;;;;;;;;;;;13.66;67.44;98123.53;1052988;28;909;-62
2021/11/27 03:45:48;;;;;;;;;;;;;;;13.67;67.07;98122.53;1053172;28;696;-62
2021/11/27 03:46:38;;;;;;;;;;;;;;;13.66;67.53;98118.19;1055961;28;1563;-62
2021/11/27 03:47:29;;;;;;;;;;;;;;;13.66;67.17;98127.03;1056786;28;682;-61
2021/11/27 03:48:19;;;;;;;;;;;;;;;13.66;67.08;98120.84;1056398;28;822;-61
2021/11/27 03:49:09;;;;;;;;;;;;;;;13.66;67.67;98120.84;1056521;28;909;-62
2021/11/27 03:50:00;;;;;;;;;;;;;;;13.66;67.26;98120.84;1056829;28;746;-61
2021/11/27 03:50:50;;;;;;;;;;;;;;;13.67;67.32;98122.53;1056458;28;767;-60
2021/11/27 03:51:41;;;;;;;;;;;;;;;13.66;66.44;98126.22;1058373;28;700;-61
2021/11/27 03:52:31;;;;;;;;;;;;;;;13.65;66.94;98130.72;1056519;28;688;-60
2021/11/27 03:53:22;;;;;;;;;;;;;;;13.66;67.32;98129.72;1056527;28;923;-61
2021/11/27 03:54:12;;;;;;;;;;;;;;;13.65;66.79;98130.72;1056962;28;778;-61
2021/11/27 03:55:02;;;;;;;;;;;;;;;13.66;66.42;98131.56;1056542;28;697;-61
2021/11/27 03:55:53;;;;;;;;;;;;;;;13.65;66.79;98136.09;1056708;28;669;-61
2021/11/27 03:56:43;;;;;;;;;;;;;;;13.65;66.66;98129.91;1056445;28;761;-62
2021/11/27 03:57:34;;;;;;;;;;;;;;;13.65;67.62;98132.56;1056588;28;784;-62
2021/11/27 03:58:24;;;;;;;;;;;;;;;13.64;66.98;98130.91;1056257;28;768;-62
2021/11/27 03:59:14;;;;;;;;;;;;;;;13.63;67.62;98132.75;1056501;28;1088;-61
2021/11/27 04:00:05;;;;;;;;;;;;;;;13.63;67.33;98132.75;1056718;28;709;-61
2021/11/27 04:00:55;;;;;;;;;;;;;;;13.63;66.80;98131.94;1056408;28;1002;-61
2021/11/27 04:01:46;;;;;;;;;;;;;;;13.63;66.85;98138.09;1056634;28;759;-62
2021/11/27 04:02:36;;;;;;;;;;;;;;;13.64;67.54;98134.41;1055770;28;661;-61
2021/11/27 04:03:26;;;;;;;;;;;;;;;13.63;67.70;98137.28;1056163;28;789;-61
2021/11/27 04:04:17;;;;;;;;;;;;;;;13.64;66.94;98141.63;1056631;28;700;-61
2021/11/27 04:05:07;;;;;;;;;;;;;;;13.63;66.80;98137.28;1049495;28;786;-61
2021/11/27 04:05:58;;;;;;;;;;;;;;;13.63;67.05;98139.97;1052075;28;1026;-61
2021/11/27 04:06:48;;;;;;;;;;;;;;;13.62;66.68;98141.81;1050292;28;1700;-62
2021/11/27 04:07:39;;;;;;;;;;;;;;;13.63;66.67;98137.28;1052123;28;2040;-61
2021/11/27 04:08:29;;;;;;;;;;;;;;;13.61;66.83;98140.16;1052969;28;700;-60
2021/11/27 04:09:19;;;;;;;;;;;;;;;13.61;66.74;98140.16;1052833;28;694;-61
2021/11/27 04:10:10;;;;;;;;;;;;;;;13.61;67.50;98142.84;1052711;28;929;-61
2021/11/27 04:11:00;;;;;;;;;;;;;;;13.61;66.67;98148.19;1052712;28;649;-62
2021/11/27 04:11:51;;;;;;;;;;;;;;;13.60;67.28;98143.03;1052851;28;653;-61
2021/11/27 04:12:41;;;;;;;;;;;;;;;13.61;67.74;98139.34;1053023;28;801;-61
2021/11/27 04:13:31;;;;;;;;;;;;;;;13.60;67.13;98137.69;1052864;28;681;-61
2021/11/27 04:14:22;;;;;;;;;;;;;;;13.60;67.23;98145.72;1052748;28;1015;-61
2021/11/27 04:15:12;;;;;;;;;;;;;;;13.60;67.05;98143.84;1052779;28;874;-60
2021/11/27 04:16:03;;;;;;;;;;;;;;;13.60;67.01;98148.38;1052889;28;638;-61
2021/11/27 04:16:53;;;;;;;;;;;;;;;13.60;67.41;98143.84;1052491;28;2064;-61
2021/11/27 04:17:43;;;;;;;;;;;;;;;13.59;67.15;98149.41;1052794;28;673;-60
2021/11/27 04:18:34;;;;;;;;;;;;;;;13.59;66.52;98154.75;1052878;28;863;-59
2021/11/27 04:19:24;;;;;;;;;;;;;;;13.58;67.64;98156.59;1052707;28;845;-60
2021/11/27 04:20:15;;;;;;;;;;;;;;;13.60;66.69;98148.38;1052888;28;818;-60
2021/11/27 04:21:05;;;;;;;;;;;;;;;13.60;67.32;98153.72;1052570;28;803;-60
2021/11/27 04:21:56;;;;;;;;;;;;;;;13.59;67.29;98160.09;1052803;28;694;-60
2021/11/27 04:22:46;;;;;;;;;;;;;;;13.59;66.67;98154.75;1052841;28;843;-61
2021/11/27 04:23:36;;;;;;;;;;;;;;;13.59;66.88;98168.97;1052867;28;683;-61
2021/11/27 04:24:27;;;;;;;;;;;;;;;13.59;67.55;98165.44;1052814;28;809;-61
2021/11/27 04:25:17;;;;;;;;;;;;;;;13.59;67.38;98162.78;1052710;28;780;-61
2021/11/27 04:26:08;;;;;;;;;;;;;;;13.59;66.58;98165.44;1052725;28;707;-61
2021/11/27 04:26:58;;;;;;;;;;;;;;;13.59;67.28;98168.13;1052975;28;1056;-61
2021/11/27 04:27:48;;;;;;;;;;;;;;;13.57;67.55;98170.97;1052780;28;610;-60
2021/11/27 04:28:39;;;;;;;;;;;;;;;13.57;66.66;98175.50;1052735;28;785;-61